Airfield :







YOU CAN JOIN US ON...

 
LOGIN :

Register | Disclaimer

   EN    FR    IT 

 









Legend :    VFR   Marginal VFR   IFR   Intensive IFR   Very Intensive IFR
Visi :
Ceiling :
>= 8 km
>= 3000ft
5 to 8 km
1000 to 3000 ft
1500m to 5 km
500 to 1000 ft
800 to 1500m
200 to 500 ft
< 800m
< 200 ft
Symbols :   Thunderstorms  Fog  Heavy snow  Heavy precipitations  Wind > 20 kt







- Airport Elevation : 40 ft
- IATA code : YRF


CYCA - Cartwright

CURRENT METAR :
  • 210600Z AUTO VRB02KT 9SM CLR 09/08 A2965 RMK SLP042

EXPIRED METARs :
  • 210500Z AUTO 00000KT 9SM CLR 08/07 A2965 RMK SLP042
  • 210400Z AUTO 00000KT 9SM CLR 09/08 A2966 RMK SLP046

TAF AMD TAF CYCA
Valid from the 21 at 02:00 until the 21 at 14:00 UTC


210224Z 2102/2114 VRB03KT P6SM SKC
FM210400 14010KT P6SM BKN030
TEMPO 2104/2112 BKN020 RMK FCST BASED ON AUTO OBS. NXT FCST BY 210800Z
CZQX FIR / North America



MET'MAP, your aeronautical weather chart ! - Copyright ORBIFLY December 2007 - Disclaimer

ORBIFLY MET'MAP TEAM :

Programming & Development : Alexandra Zaïnal
Concept & Development : Baudouin d'Aumeries
Co-Development & Prog : Marc-Olivier Méhu
Technical & hardware support : Manuel Goepfert

Contact : metmap@orbifly.com




SOURCES & CREDITS :

   NOAA